Terminal Aerodrome Forecast
Issued by NWS Upton, NY

Current Version | Previous Version | Text Only | Print | Product List | Glossary On
Versions: 1 2 3 4 5 6 7 8 9 10 11 12 13 14 15 16 17 18 19 20 21 22 23 24 25 26
000
FTUS41 KOKX 031933 AAA
TAFJFK
TAF AMD
KJFK 031933Z 0320/0424 20010KT P6SM SCT250
     FM032300 15007KT P6SM BKN250
     FM040200 VRB04KT P6SM BKN250
     FM041100 05010KT P6SM BKN025
     FM041500 06014G20KT P6SM BKN030
     FM042000 08012G20KT P6SM BKN040=

USA.gov is the U.S. government's official web portal to all federal, state and local government web resources and services.